ADDS TAF Board (Experimental) INFO Settings
IDs: Format: Expanded Condensed

KMIA - Miami Intl, FL, US

Issued at 1722 UTC 26 Sep 2016
Updated at 1902 UTC 26 Sep 2016
Time1853Z 26/20Z 26/21Z 26/22Z 26/23Z 27/00Z 27/01Z 27/02Z 27/03Z 27/04Z 27/05Z 27/06Z 27/07Z 27/08Z
Type OBS PRVL PRVL PRVL PRVL PRVL PRVL PRVL PRVL PRVL PRVL PRVL PRVL PRVL
VIS 10 >6 >6 >6 >6 >6 >6 >6 >6 >6 >6 >6 >6 >6
CIG 90 50 50 50 50 250 250 250 250 -- -- -- -- --
Cover BKN BKN BKN BKN BKN BKN BKN BKN BKN SCT SCT SCT SCT SCT
FltCat VFR VFR VFR VFR VFR VFR VFR VFR VFR VFR VFR VFR VFR VFR
WX -- VCTS VCTS VCTS VCTS VCSH VCSH VCSH VCSH -- -- -- -- --
WDir 110 140 140 140 140 VRB VRB VRB VRB VRB VRB VRB VRB VRB
WSpd 7 7 7 7 7 3 3 3 3 0 0 0 0 0
WGst -- -- -- -- -- -- -- -- -- -- -- -- -- --
R08/26
XWnd -3 -6 -6 -6 -6 VRB VRB VRB VRB VRB VRB VRB VRB VRB
HWnd 6 4 4 4 4 VRB VRB VRB VRB VRB VRB VRB VRB VRB
R09/27
XWnd -3 -6 -6 -6 -6 VRB VRB VRB VRB VRB VRB VRB VRB VRB
HWnd 6 4 4 4 4 VRB VRB VRB VRB VRB VRB VRB VRB VRB
R12/30
XWnd 1 -3 -3 -3 -3 VRB VRB VRB VRB VRB VRB VRB VRB VRB
HWnd 7 7 7 7 7 VRB VRB VRB VRB VRB VRB VRB VRB VRB

Raw TAF
KMIA 261722Z 2618/2718 14007KT P6SM VCTS SCT025CB BKN050 BKN250
  FM270000 VRB03KT P6SM VCSH SCT030 SCT100 BKN250
  FM270400 00000KT P6SM FEW035 SCT250
  FM271600 15007KT P6SM VCTS SCT025CB SCT080 BKN250


Raw METAR
KMIA 261853Z 11007KT 10SM SCT031 BKN090 BKN220 30/24 A2994 RMK AO2 LTG DSNT N TSE38 SLP139 CB DSNT N T03000244
KMIA 261838Z COR 17006KT 10SM SCT027 BKN090 BKN220 31/24 A2995 RMK AO2 LTG DSNT N TSE38 CB DSNT N T03060239
KMIA 261753Z 16007KT 10SM TS BKN025CB BKN080 BKN220 30/24 A2997 RMK AO2 LTG DSNT N AND NW SLP148 OCNL LTGICCG N AND NW TS N AND NW MOV N T03000244 10306 20267 58017
KMIA 261653Z 17005KT 10SM TS BKN027CB BKN060 BKN250 30/24 A3000 RMK AO2 LTG DSNT W-N SLP157 OCNL LTGICCG W-N TS W-N MOV N T03000244 $

METAR Board
Radar Display
Forecast Discussion

TAF Board Legend

Potential Impact
Threat None Slight Moderate High
Visibility (sm) ≥5.1 5.1>X≥3 3>X≥1 <1
Ceiling (100 ft) ≥30.1 30.1>X≥10 10>X≥5 <5
Wind Speed (kt) <10 10≤X<20 20≤X<30 ≥30
Wind Gust (kt) <15 15≤X<25 25≤X<35 ≥35
Weather No Wx Reported VCTS,-TS,-FZRA,SN TS,FZRA +TS,+FZRA,+SN